Danby, Vermont
Current Conditions -  °F | °C
As of 12:35 AM on Friday 28 Nov 2014 (Local Time) from KRUT Reporting Station
Overcast Overcast  
Wind Chill: 25°   Ceiling: 2800
Heat Index: 25°   Visibility: 3mi
Dew Point: 21°   Wind: 0mph
Humidity: 86%   Direction: NA
Pressure: 29.99"   Gusts: NA
Location:  43.35°N, 73°W
Report Text: KRUT 280535Z 00000KT 3SM BKN028 OVC036 M04/M06 A2999 RMK AO1
Loading
Personal Weather Stations






























Interactive Weather Map New forecast layout! Learn more

10-Day Weather Forecast

Advertisements
Track Severe Weather on mobile